Time;durP1;ratioP1;P1;durP2;ratioP2;P2;SDS_P1;SDS_P2;PMS_P1;PMS_P2;Temp;Humidity;BMP_temperature;BMP_pressure;BME280_temperature;BME280_humidity;BME280_pressure;Samples;Min_cycle;Max_cycle;Signal;HPM_P1;HPM_P2
2021/01/02 00:00:14;;;;;;;19.85;16.23;;;-0.80;76.30;;;;;;5120951;28;20047;-76
2021/01/02 00:03:07;;;;;;;29.98;21.25;;;-0.90;76.80;;;;;;5121272;28;20039;-76
2021/01/02 00:05:51;;;;;;;29.42;20.35;;;-0.90;76.90;;;;;;5101657;28;20083;-76
2021/01/02 00:08:26;;;;;;;22.83;17.92;;;-0.90;76.70;;;;;;5121209;28;20051;-76
2021/01/02 00:11:21;;;;;;;25.80;17.25;;;-0.90;76.90;;;;;;5104247;28;20051;-76
2021/01/02 00:14:06;;;;;;;19.63;17.02;;;-0.90;76.70;;;;;;5120477;28;20114;-76
2021/01/02 00:17:10;;;;;;;22.00;18.25;;;-0.80;76.40;;;;;;5120199;28;20086;-76
2021/01/02 00:19:56;;;;;;;20.33;16.73;;;-0.80;76.40;;;;;;5122435;28;20043;-76
2021/01/02 00:22:53;;;;;;;19.33;15.95;;;-0.90;76.80;;;;;;5120832;28;20047;-76
2021/01/02 00:25:28;;;;;;;18.45;15.88;;;-0.80;76.40;;;;;;5120528;28;20047;-75
2021/01/02 00:28:13;;;;;;;20.23;16.55;;;-0.80;76.30;;;;;;5120116;28;20682;-74
2021/01/02 00:31:00;;;;;;;19.20;16.48;;;-0.80;76.20;;;;;;5119199;28;20390;-76
2021/01/02 00:34:03;;;;;;;17.60;15.57;;;-0.80;76.20;;;;;;5120370;28;20512;-75
2021/01/02 00:36:45;;;;;;;21.92;15.90;;;-0.80;76.10;;;;;;5117884;28;20057;-75
2021/01/02 00:39:31;;;;;;;17.77;15.50;;;-0.80;76.50;;;;;;5119961;28;20058;-75
2021/01/02 00:42:03;;;;;;;19.77;14.95;;;-0.80;76.40;;;;;;5120113;28;20039;-75
2021/01/02 00:44:34;;;;;;;19.17;16.08;;;-0.80;76.80;;;;;;5121873;28;20039;-75
2021/01/02 00:47:11;;;;;;;18.25;15.43;;;-0.80;76.90;;;;;;5120934;28;20046;-75
2021/01/02 00:49:49;;;;;;;18.30;15.35;;;-0.80;77.00;;;;;;5121596;28;20150;-75
2021/01/02 00:52:30;;;;;;;20.08;15.70;;;-0.80;76.60;;;;;;5117107;28;20133;-75
2021/01/02 00:55:29;;;;;;;18.90;15.00;;;-0.80;77.00;;;;;;5121114;28;20050;-73
2021/01/02 00:58:34;;;;;;;19.48;15.90;;;-0.80;77.10;;;;;;5120660;28;20106;-75
2021/01/02 01:01:17;;;;;;;19.00;15.00;;;-0.80;76.90;;;;;;5117966;28;20043;-75
2021/01/02 01:04:15;;;;;;;17.70;15.40;;;-0.80;77.30;;;;;;5118580;28;20652;-75
2021/01/02 01:06:54;;;;;;;16.90;15.10;;;-0.80;76.80;;;;;;5119007;28;20055;-76
2021/01/02 01:09:27;;;;;;;17.48;15.48;;;-0.80;76.90;;;;;;5120343;28;20039;-75
2021/01/02 01:11:59;;;;;;;16.77;14.57;;;-0.80;77.00;;;;;;5119758;28;20532;-75
2021/01/02 01:14:31;;;;;;;17.70;14.85;;;-0.80;77.00;;;;;;5101261;28;20184;-75
2021/01/02 01:17:05;;;;;;;16.25;14.07;;;-0.80;77.10;;;;;;5120825;28;20059;-75
2021/01/02 01:19:39;;;;;;;15.77;14.13;;;-0.80;77.10;;;;;;5121239;28;20109;-75
2021/01/02 01:22:14;;;;;;;16.38;14.70;;;-0.90;77.20;;;;;;5118610;28;20121;-75
2021/01/02 01:25:01;;;;;;;15.90;14.20;;;-0.90;77.30;;;;;;5102778;28;20039;-75
2021/01/02 01:27:38;;;;;;;16.35;14.75;;;-0.90;77.20;;;;;;5120159;28;20106;-75
2021/01/02 01:30:14;;;;;;;15.80;13.80;;;-0.90;77.20;;;;;;5116230;28;20039;-76
2021/01/02 01:33:01;;;;;;;15.52;14.02;;;-0.80;77.30;;;;;;5120199;28;20126;-75
2021/01/02 01:35:36;;;;;;;15.73;14.15;;;-0.80;77.10;;;;;;5119330;28;20043;-76
2021/01/02 01:38:14;;;;;;;16.23;14.52;;;-0.70;77.00;;;;;;5104866;28;20397;-76
2021/01/02 01:40:56;;;;;;;15.35;13.80;;;-0.70;76.70;;;;;;5118098;28;20043;-76
2021/01/02 01:44:07;;;;;;;16.83;14.60;;;-0.70;76.70;;;;;;5118890;28;20110;-76
2021/01/02 01:46:50;;;;;;;16.70;15.00;;;-0.70;77.00;;;;;;5121357;28;20050;-76
2021/01/02 01:49:31;;;;;;;17.67;14.55;;;-0.70;76.70;;;;;;5100334;28;20059;-76
2021/01/02 01:52:14;;;;;;;16.58;14.70;;;-0.70;76.60;;;;;;5119466;28;20050;-76
2021/01/02 01:55:05;;;;;;;18.00;15.18;;;-0.70;76.70;;;;;;5120485;28;20729;-75
2021/01/02 01:57:39;;;;;;;17.65;15.73;;;-0.70;76.80;;;;;;5141686;28;20049;-75
2021/01/02 02:00:13;;;;;;;17.33;14.98;;;-0.70;76.70;;;;;;5139093;28;20046;-75
2021/01/02 02:02:44;;;;;;;16.88;13.98;;;-0.70;76.70;;;;;;5120288;28;20106;-76
2021/01/02 02:05:21;;;;;;;17.13;15.32;;;-0.70;76.80;;;;;;5117637;28;20047;-75
2021/01/02 02:07:59;;;;;;;17.15;15.43;;;-0.70;77.40;;;;;;5121367;28;20171;-75
2021/01/02 02:10:33;;;;;;;16.88;15.18;;;-0.70;77.40;;;;;;5102756;28;20043;-76
2021/01/02 02:13:19;;;;;;;16.02;14.35;;;-0.80;77.30;;;;;;5086086;28;20053;-75
2021/01/02 02:15:53;;;;;;;17.00;15.27;;;-0.70;77.40;;;;;;5119956;28;20369;-75
2021/01/02 02:18:27;;;;;;;19.75;15.70;;;-0.70;77.00;;;;;;5120671;28;20039;-75
2021/01/02 02:21:00;;;;;;;17.40;15.45;;;-0.70;77.00;;;;;;5118346;28;20141;-75
2021/01/02 02:23:35;;;;;;;16.02;14.48;;;-0.70;77.00;;;;;;5120832;28;20113;-75
2021/01/02 02:26:30;;;;;;;16.27;14.57;;;-0.70;77.00;;;;;;5115376;28;20054;-75
2021/01/02 02:29:08;;;;;;;16.08;14.40;;;-0.70;78.10;;;;;;5120812;28;20070;-75
2021/01/02 02:31:45;;;;;;;16.98;15.27;;;-0.70;77.80;;;;;;5119394;28;20050;-75
2021/01/02 02:34:17;;;;;;;16.13;14.48;;;-0.80;77.50;;;;;;5100300;28;20043;-75
2021/01/02 02:36:49;;;;;;;17.00;14.88;;;-0.70;77.40;;;;;;5120379;28;20039;-75
2021/01/02 02:39:20;;;;;;;15.75;14.00;;;-0.70;77.50;;;;;;5118790;28;20039;-75
2021/01/02 02:41:58;;;;;;;16.45;13.70;;;-0.70;77.20;;;;;;5119092;28;20043;-75
2021/01/02 02:44:37;;;;;;;15.73;13.90;;;-0.70;77.30;;;;;;5104570;28;20070;-75
2021/01/02 02:47:13;;;;;;;15.68;14.05;;;-0.70;77.30;;;;;;5104254;28;20138;-75
2021/01/02 02:49:48;;;;;;;15.70;13.95;;;-0.70;77.70;;;;;;5121616;28;20067;-75
2021/01/02 02:52:37;;;;;;;14.75;13.35;;;-0.80;77.90;;;;;;5120482;28;20102;-75
2021/01/02 02:55:10;;;;;;;16.00;14.30;;;-0.70;77.60;;;;;;5083248;28;20039;-75
2021/01/02 02:57:48;;;;;;;15.68;14.07;;;-0.70;77.40;;;;;;5104241;28;20584;-76
2021/01/02 03:00:20;;;;;;;16.42;14.80;;;-0.70;77.50;;;;;;5119527;28;20129;-76
2021/01/02 03:02:51;;;;;;;16.15;14.50;;;-0.70;77.70;;;;;;5118404;28;20098;-76
2021/01/02 03:05:23;;;;;;;16.60;14.90;;;-0.70;77.80;;;;;;5118422;28;20047;-76
2021/01/02 03:07:55;;;;;;;15.82;14.23;;;-0.80;77.80;;;;;;5118644;28;20106;-76
2021/01/02 03:10:27;;;;;;;16.58;14.88;;;-0.80;78.10;;;;;;5102356;28;20058;-76
2021/01/02 03:12:58;;;;;;;16.48;14.68;;;-0.80;77.90;;;;;;5119343;28;20035;-76
2021/01/02 03:15:38;;;;;;;17.00;15.23;;;-0.80;77.90;;;;;;5119434;28;20054;-75
2021/01/02 03:18:12;;;;;;;14.97;13.33;;;-0.80;77.70;;;;;;5119614;28;20098;-75
2021/01/02 03:20:44;;;;;;;15.60;13.98;;;-0.80;77.60;;;;;;5120402;28;20043;-75
2021/01/02 03:23:15;;;;;;;15.43;13.82;;;-0.80;77.50;;;;;;5119688;28;20055;-75
2021/01/02 03:25:47;;;;;;;15.85;14.25;;;-0.70;77.50;;;;;;5087176;28;20071;-75
2021/01/02 03:28:18;;;;;;;16.10;14.50;;;-0.70;77.30;;;;;;5120074;28;20050;-75
2021/01/02 03:30:49;;;;;;;15.98;14.38;;;-0.70;77.20;;;;;;5118753;28;20102;-75
2021/01/02 03:33:21;;;;;;;15.18;13.57;;;-0.70;77.00;;;;;;5118806;28;20106;-76
2021/01/02 03:35:58;;;;;;;16.63;14.10;;;-0.70;77.00;;;;;;5101102;28;20055;-75
2021/01/02 03:38:33;;;;;;;16.25;14.52;;;-0.70;77.20;;;;;;5119237;28;20122;-76
2021/01/02 03:41:04;;;;;;;15.27;13.75;;;-0.60;77.30;;;;;;5118106;28;20051;-76
2021/01/02 03:43:36;;;;;;;17.08;14.32;;;-0.60;77.40;;;;;;5119786;28;20141;-76
2021/01/02 03:46:07;;;;;;;15.88;14.32;;;-0.60;77.40;;;;;;5122575;28;20047;-76
2021/01/02 03:48:39;;;;;;;15.63;14.05;;;-0.60;77.40;;;;;;5123523;28;20035;-76
2021/01/02 03:51:10;;;;;;;14.25;12.95;;;-0.60;76.80;;;;;;5103887;28;20814;-75
2021/01/02 03:53:41;;;;;;;14.45;13.05;;;-0.70;76.80;;;;;;5075449;28;20055;-75
2021/01/02 03:56:13;;;;;;;14.20;12.82;;;-0.80;76.20;;;;;;5120662;28;20051;-75
2021/01/02 03:58:44;;;;;;;14.23;12.95;;;-0.90;76.70;;;;;;5123850;28;20054;-75
2021/01/02 04:01:16;;;;;;;14.52;13.13;;;-1.00;75.90;;;;;;5121346;28;20051;-76
2021/01/02 04:03:47;;;;;;;15.90;14.40;;;-1.00;76.60;;;;;;5123879;28;20560;-76
2021/01/02 04:06:25;;;;;;;14.63;13.13;;;-0.90;77.70;;;;;;5122438;28;20552;-75
2021/01/02 04:08:57;;;;;;;15.75;14.25;;;-0.90;77.70;;;;;;5121950;28;20407;-75
2021/01/02 04:11:29;;;;;;;16.00;14.35;;;-0.80;77.70;;;;;;5100071;28;20040;-75
2021/01/02 04:14:01;;;;;;;14.52;13.13;;;-0.80;77.30;;;;;;5121884;28;20043;-75
2021/01/02 04:16:33;;;;;;;14.45;13.05;;;-0.80;76.60;;;;;;5121103;28;20497;-75
2021/01/02 04:19:05;;;;;;;14.50;13.10;;;-0.90;76.00;;;;;;5122136;28;20062;-75
2021/01/02 04:21:37;;;;;;;15.10;13.70;;;-1.00;76.20;;;;;;5123594;28;20098;-76
2021/01/02 04:24:09;;;;;;;14.52;13.13;;;-1.00;76.00;;;;;;5123787;28;20094;-76
2021/01/02 04:26:40;;;;;;;14.40;13.05;;;-1.00;76.00;;;;;;5121048;28;20129;-76
2021/01/02 04:29:12;;;;;;;15.32;13.82;;;-1.00;76.90;;;;;;5121106;28;20046;-75
2021/01/02 04:31:44;;;;;;;14.05;12.75;;;-1.10;76.10;;;;;;5123135;28;20061;-75
2021/01/02 04:34:15;;;;;;;14.38;12.98;;;-1.10;76.20;;;;;;5103142;28;20059;-75
2021/01/02 04:36:50;;;;;;;14.45;13.05;;;-1.20;76.30;;;;;;5104438;28;20047;-75
2021/01/02 04:39:22;;;;;;;14.07;12.68;;;-1.20;76.40;;;;;;5120925;28;20070;-75
2021/01/02 04:41:56;;;;;;;13.88;12.65;;;-1.20;76.20;;;;;;5122448;28;20050;-75
2021/01/02 04:44:28;;;;;;;14.02;12.73;;;-1.20;75.80;;;;;;5121875;28;20050;-75
2021/01/02 04:47:01;;;;;;;14.40;12.98;;;-1.20;75.80;;;;;;5120860;28;20203;-75
2021/01/02 04:49:33;;;;;;;13.95;12.55;;;-1.30;75.70;;;;;;5121840;28;20102;-75
2021/01/02 04:52:05;;;;;;;14.20;12.80;;;-1.30;76.00;;;;;;5121387;28;20074;-75
2021/01/02 04:54:40;;;;;;;13.98;12.57;;;-1.30;76.20;;;;;;5105923;28;20038;-76
2021/01/02 04:57:12;;;;;;;14.07;12.57;;;-1.30;76.20;;;;;;5087380;28;20049;-76
2021/01/02 04:59:51;;;;;;;14.40;13.00;;;-1.30;76.60;;;;;;5122117;28;20517;-76
2021/01/02 05:02:23;;;;;;;13.52;12.15;;;-1.30;76.40;;;;;;5121468;28;20629;-75
2021/01/02 05:04:54;;;;;;;13.18;11.93;;;-1.30;76.40;;;;;;5116843;28;20110;-75
2021/01/02 05:07:27;;;;;;;13.73;12.13;;;-1.30;76.30;;;;;;5119928;28;20098;-75
2021/01/02 05:09:59;;;;;;;13.52;12.23;;;-1.30;76.30;;;;;;5121325;28;20466;-75
2021/01/02 05:12:33;;;;;;;14.18;12.85;;;-1.20;76.10;;;;;;5122765;28;20043;-75
2021/01/02 05:15:07;;;;;;;13.20;12.00;;;-1.30;76.10;;;;;;5121571;28;20039;-75
2021/01/02 05:17:40;;;;;;;13.88;12.57;;;-1.20;76.30;;;;;;5122961;28;20097;-75
2021/01/02 05:20:13;;;;;;;14.13;12.73;;;-1.10;76.40;;;;;;5105384;28;20047;-75
2021/01/02 05:22:45;;;;;;;16.27;14.05;;;-1.10;76.50;;;;;;5123705;28;20105;-75
2021/01/02 05:25:18;;;;;;;14.60;13.10;;;-1.10;76.60;;;;;;5122087;28;20040;-75
2021/01/02 05:27:52;;;;;;;14.02;12.73;;;-1.00;76.60;;;;;;5121231;28;20054;-74
2021/01/02 05:30:26;;;;;;;14.23;12.93;;;-0.90;76.60;;;;;;5120532;28;20537;-75
2021/01/02 05:33:08;;;;;;;13.65;12.40;;;-0.90;76.20;;;;;;5121104;28;20138;-75
2021/01/02 05:35:47;;;;;;;13.95;12.63;;;-0.90;75.70;;;;;;5119155;28;20715;-76
2021/01/02 05:38:22;;;;;;;13.68;12.38;;;-1.00;75.30;;;;;;5101959;28;20047;-76
2021/01/02 05:40:58;;;;;;;13.40;12.00;;;-1.00;75.40;;;;;;5121009;28;20047;-76
2021/01/02 05:43:31;;;;;;;13.73;12.43;;;-1.10;75.60;;;;;;5119483;28;20129;-76
2021/01/02 05:46:05;;;;;;;13.55;12.30;;;-1.20;75.50;;;;;;5121345;28;20193;-75
2021/01/02 05:48:36;;;;;;;13.80;12.50;;;-1.20;76.00;;;;;;5116405;28;20051;-76
2021/01/02 05:51:12;;;;;;;13.95;12.55;;;-1.10;77.00;;;;;;5101369;28;20771;-76
2021/01/02 05:53:44;;;;;;;13.48;12.15;;;-1.10;76.80;;;;;;5120557;28;20465;-76
2021/01/02 05:56:17;;;;;;;13.52;12.15;;;-1.00;76.70;;;;;;5119839;28;20576;-76
2021/01/02 05:58:48;;;;;;;14.15;12.75;;;-0.90;76.80;;;;;;5120775;28;20066;-76
2021/01/02 06:01:19;;;;;;;14.23;12.73;;;-0.90;76.80;;;;;;5117977;28;20427;-76
2021/01/02 06:03:51;;;;;;;14.93;13.18;;;-0.80;76.60;;;;;;5101691;28;20105;-76
2021/01/02 06:06:23;;;;;;;13.30;11.65;;;-0.80;76.50;;;;;;5120169;28;20130;-76
2021/01/02 06:08:55;;;;;;;12.88;11.68;;;-0.80;75.80;;;;;;5121210;28;20489;-76
2021/01/02 06:11:27;;;;;;;13.55;12.25;;;-0.80;74.80;;;;;;5118976;28;20066;-76
2021/01/02 06:13:58;;;;;;;13.35;11.95;;;-0.80;75.70;;;;;;5121112;28;20079;-76
2021/01/02 06:16:30;;;;;;;15.05;12.23;;;-0.70;75.80;;;;;;5119825;28;20050;-76
2021/01/02 06:19:02;;;;;;;15.27;12.40;;;-0.70;75.90;;;;;;5121851;28;20043;-75
2021/01/02 06:21:34;;;;;;;13.38;11.75;;;-0.70;75.70;;;;;;5118351;28;20049;-75
2021/01/02 06:24:06;;;;;;;13.68;12.27;;;-0.80;74.80;;;;;;5119882;28;20132;-76
2021/01/02 06:26:37;;;;;;;13.07;11.77;;;-0.80;75.00;;;;;;5119673;28;20572;-76
2021/01/02 06:29:09;;;;;;;14.07;11.85;;;-0.80;74.80;;;;;;5119620;28;20043;-74
2021/01/02 06:31:41;;;;;;;14.07;12.18;;;-0.80;75.10;;;;;;5120287;28;20035;-74
2021/01/02 06:34:12;;;;;;;14.52;13.02;;;-0.70;75.30;;;;;;5120698;28;20055;-73
2021/01/02 06:36:44;;;;;;;14.07;12.57;;;-0.70;76.20;;;;;;5119720;28;20051;-76
2021/01/02 06:39:27;;;;;;;12.88;11.63;;;-0.70;75.30;;;;;;5119791;28;20581;-76
2021/01/02 06:41:59;;;;;;;13.25;11.55;;;-0.70;75.30;;;;;;5099105;28;20039;-75
2021/01/02 06:44:46;;;;;;;14.55;12.98;;;-0.70;75.30;;;;;;5119946;28;20039;-76
2021/01/02 06:47:22;;;;;;;14.30;12.80;;;-0.70;76.10;;;;;;5118122;28;20078;-75
2021/01/02 06:49:54;;;;;;;14.40;12.90;;;-0.60;75.40;;;;;;5116785;28;20053;-76
2021/01/02 06:52:36;;;;;;;13.65;12.35;;;-0.70;75.30;;;;;;5099750;28;20035;-76
2021/01/02 06:55:23;;;;;;;13.65;12.25;;;-0.70;75.30;;;;;;5117536;28;20058;-75
2021/01/02 06:58:17;;;;;;;15.90;13.63;;;-0.60;75.10;;;;;;5118504;28;20122;-75
2021/01/02 07:00:49;;;;;;;15.02;13.45;;;-0.60;75.30;;;;;;5119135;28;20509;-76
2021/01/02 07:03:39;;;;;;;16.98;13.77;;;-0.60;75.10;;;;;;5106469;28;20051;-76
2021/01/02 07:06:33;;;;;;;13.98;12.48;;;-0.60;74.90;;;;;;5118048;28;20066;-76
2021/01/02 07:09:15;;;;;;;15.07;13.50;;;-0.60;75.00;;;;;;5119771;28;20046;-75
2021/01/02 07:11:48;;;;;;;14.68;12.60;;;-0.60;75.10;;;;;;5119859;28;20079;-75
2021/01/02 07:14:24;;;;;;;13.98;11.95;;;-0.60;75.20;;;;;;5117719;28;20047;-76
2021/01/02 07:16:58;;;;;;;15.57;13.93;;;-0.60;75.10;;;;;;5115367;28;20047;-75
2021/01/02 07:19:35;;;;;;;14.52;12.60;;;-0.60;75.30;;;;;;5122348;28;20039;-75
2021/01/02 07:22:09;;;;;;;16.50;14.43;;;-0.60;75.30;;;;;;5122959;28;20492;-75
2021/01/02 07:24:52;;;;;;;21.35;16.60;;;-0.60;75.30;;;;;;5105882;28;20045;-76
2021/01/02 07:27:32;;;;;;;26.95;18.00;;;-0.60;75.60;;;;;;5121611;28;20090;-74
2021/01/02 07:30:05;;;;;;;;;;;-0.50;75.20;;;;;;5122392;28;20051;-75
2021/01/02 07:32:41;;;;;;;19.15;14.52;;;-0.50;75.00;;;;;;5120667;28;20421;-75
2021/01/02 07:35:14;;;;;;;16.27;14.23;;;-0.50;75.20;;;;;;5118980;28;20039;-75
2021/01/02 07:37:46;;;;;;;15.82;13.18;;;-0.40;75.40;;;;;;5100789;28;20043;-75
2021/01/02 07:40:19;;;;;;;17.13;14.05;;;-0.30;75.50;;;;;;5119856;28;20051;-75
2021/01/02 07:42:52;;;;;;;14.80;13.20;;;-0.30;75.50;;;;;;5121961;28;20102;-74
2021/01/02 07:45:27;;;;;;;16.13;14.40;;;-0.20;75.10;;;;;;5118216;28;20062;-75
2021/01/02 07:47:59;;;;;;;16.27;14.40;;;-0.10;75.10;;;;;;5120958;28;20050;-75
2021/01/02 07:50:32;;;;;;;17.42;14.90;;;-0.10;75.40;;;;;;5119147;28;20051;-75
2021/01/02 07:53:03;;;;;;;16.25;14.43;;;-0.20;74.70;;;;;;5118103;28;20149;-75
2021/01/02 07:55:35;;;;;;;15.65;13.70;;;-0.20;74.80;;;;;;5121082;28;20735;-75
2021/01/02 07:58:07;;;;;;;16.33;14.07;;;-0.20;74.90;;;;;;5121721;28;20049;-75
2021/01/02 08:00:38;;;;;;;24.15;17.92;;;-0.10;75.20;;;;;;5119851;28;20549;-75
2021/01/02 08:03:13;;;;;;;41.05;22.27;;;-0.10;75.20;;;;;;5119172;28;20528;-75
2021/01/02 08:05:45;;;;;;;80.78;40.63;;;0.00;75.10;;;;;;5121489;28;20055;-75
2021/01/02 08:08:18;;;;;;;50.92;28.80;;;0.00;75.00;;;;;;5120617;28;20398;-75
2021/01/02 08:10:49;;;;;;;20.15;16.50;;;0.10;74.90;;;;;;5121119;28;20070;-74
2021/01/02 08:13:22;;;;;;;19.25;16.58;;;0.20;74.50;;;;;;5120142;28;20039;-75
2021/01/02 08:15:53;;;;;;;19.20;14.90;;;0.20;74.20;;;;;;5122527;28;20047;-74
2021/01/02 08:18:24;;;;;;;18.25;15.55;;;0.20;73.00;;;;;;5120315;28;20062;-75
2021/01/02 08:21:02;;;;;;;15.30;13.70;;;0.30;73.40;;;;;;5122157;28;20576;-75
2021/01/02 08:23:33;;;;;;;17.95;15.98;;;0.30;72.60;;;;;;5120426;28;20576;-75
2021/01/02 08:26:05;;;;;;;20.58;17.70;;;0.30;72.90;;;;;;5117990;28;20721;-75
2021/01/02 08:28:37;;;;;;;18.02;15.80;;;0.30;73.10;;;;;;5120107;28;20098;-75
2021/01/02 08:31:08;;;;;;;17.63;14.70;;;0.30;72.20;;;;;;5120209;28;20192;-75
2021/01/02 08:33:42;;;;;;;16.48;14.73;;;0.30;72.60;;;;;;5121699;28;20051;-75
2021/01/02 08:36:13;;;;;;;18.52;15.80;;;0.20;72.10;;;;;;5120912;28;20651;-76
2021/01/02 08:38:54;;;;;;;18.38;15.45;;;0.20;72.30;;;;;;5119075;28;20039;-75
2021/01/02 08:41:29;;;;;;;19.42;15.82;;;0.20;72.90;;;;;;5121271;28;20469;-75
2021/01/02 08:44:03;;;;;;;18.88;16.45;;;0.20;73.10;;;;;;5120534;28;20067;-75
2021/01/02 08:46:36;;;;;;;19.20;15.35;;;0.30;73.40;;;;;;5121301;28;20058;-75
2021/01/02 08:49:07;;;;;;;21.50;17.42;;;0.30;73.10;;;;;;5121067;28;20043;-74
2021/01/02 08:51:39;;;;;;;21.58;18.15;;;0.40;72.70;;;;;;5120833;28;20134;-73
2021/01/02 08:54:14;;;;;;;31.73;22.50;;;0.40;72.80;;;;;;5120454;28;20050;-74
2021/01/02 08:56:45;;;;;;;21.38;18.00;;;0.50;72.40;;;;;;5121235;28;20055;-74
2021/01/02 08:59:17;;;;;;;19.95;16.13;;;0.40;72.10;;;;;;5122024;28;20055;-74
2021/01/02 09:01:49;;;;;;;17.83;14.88;;;0.40;72.90;;;;;;5121986;28;20071;-74
2021/01/02 09:04:20;;;;;;;16.67;14.98;;;0.40;72.90;;;;;;5119303;28;20060;-74
2021/01/02 09:07:01;;;;;;;28.17;19.30;;;0.30;73.00;;;;;;5121064;28;20536;-74
2021/01/02 09:09:33;;;;;;;23.52;16.73;;;0.30;73.50;;;;;;5121883;28;20418;-74
2021/01/02 09:12:05;;;;;;;22.70;17.08;;;0.40;73.20;;;;;;5106722;28;20695;-74
2021/01/02 09:14:49;;;;;;;24.90;18.33;;;0.60;72.80;;;;;;5121025;28;20047;-74
2021/01/02 09:17:21;;;;;;;27.55;20.70;;;0.70;71.60;;;;;;5121172;28;20498;-74
2021/01/02 09:19:52;;;;;;;30.45;21.40;;;0.80;71.50;;;;;;5121896;28;20042;-74
2021/01/02 09:22:25;;;;;;;17.77;15.88;;;1.00;71.30;;;;;;5121099;28;20051;-74
2021/01/02 09:25:12;;;;;;;15.55;13.98;;;1.20;71.20;;;;;;5121917;28;20105;-74
2021/01/02 09:27:44;;;;;;;18.65;16.73;;;1.40;69.00;;;;;;5118306;28;20759;-74
2021/01/02 09:30:15;;;;;;;21.77;17.95;;;1.70;70.80;;;;;;5116628;28;20720;-74
2021/01/02 09:32:47;;;;;;;17.63;15.82;;;2.00;70.40;;;;;;5119579;28;20039;-74
2021/01/02 09:35:18;;;;;;;17.40;15.60;;;2.20;69.10;;;;;;5118039;28;20452;-75
2021/01/02 09:37:50;;;;;;;16.30;14.65;;;2.40;68.10;;;;;;5117585;28;20098;-75
2021/01/02 09:40:22;;;;;;;16.88;15.15;;;2.30;68.40;;;;;;5118270;28;20043;-75
2021/01/02 09:42:53;;;;;;;16.92;15.23;;;2.30;66.40;;;;;;5117824;28;20192;-76
2021/01/02 09:45:25;;;;;;;17.70;15.15;;;2.30;68.40;;;;;;5098544;28;20059;-76
2021/01/02 09:47:56;;;;;;;17.83;14.73;;;2.30;68.30;;;;;;5119212;28;20058;-75
2021/01/02 09:50:28;;;;;;;17.98;16.10;;;2.30;67.30;;;;;;5117103;28;20138;-74
2021/01/02 09:53:01;;;;;;;17.95;15.95;;;2.50;68.30;;;;;;5119379;28;20106;-76
2021/01/02 09:55:33;;;;;;;20.30;17.35;;;2.50;67.40;;;;;;5116843;28;20575;-77
2021/01/02 09:58:04;;;;;;;18.17;16.02;;;2.60;67.70;;;;;;5119241;28;20071;-77
2021/01/02 10:00:36;;;;;;;20.98;18.45;;;2.70;67.40;;;;;;5114289;28;20058;-76
2021/01/02 10:03:09;;;;;;;21.40;19.10;;;2.80;67.20;;;;;;5113499;28;20098;-75
2021/01/02 10:05:47;;;;;;;23.65;19.13;;;2.90;67.60;;;;;;5118718;28;20050;-75
2021/01/02 10:08:18;;;;;;;20.83;18.65;;;2.90;66.10;;;;;;5118383;28;20047;-78
2021/01/02 10:10:51;;;;;;;21.88;19.45;;;3.00;67.20;;;;;;5098929;28;20165;-75
2021/01/02 10:13:22;;;;;;;22.63;19.60;;;3.10;65.70;;;;;;5116937;28;20040;-77
2021/01/02 10:15:54;;;;;;;23.65;19.15;;;3.10;66.60;;;;;;5098782;28;20047;-76
2021/01/02 10:18:25;;;;;;;23.45;19.40;;;3.20;66.40;;;;;;5118371;28;20059;-76
2021/01/02 10:20:57;;;;;;;22.08;19.67;;;3.30;66.90;;;;;;5117143;28;20070;-75
2021/01/02 10:23:28;;;;;;;23.10;20.33;;;3.40;66.10;;;;;;5101809;28;20039;-75
2021/01/02 10:26:00;;;;;;;22.38;19.33;;;3.60;66.20;;;;;;5117414;28;20102;-77
2021/01/02 10:28:32;;;;;;;21.67;19.35;;;3.60;64.30;;;;;;5117568;28;20064;-75
2021/01/02 10:31:03;;;;;;;22.15;18.83;;;3.80;65.30;;;;;;5118067;28;20529;-76
2021/01/02 10:33:35;;;;;;;20.67;18.48;;;3.80;64.00;;;;;;5117426;28;20277;-76
2021/01/02 10:36:10;;;;;;;21.85;19.10;;;3.90;63.80;;;;;;5117080;28;20525;-75
2021/01/02 10:38:41;;;;;;;22.25;19.25;;;3.90;63.10;;;;;;5116854;28;20047;-74
2021/01/02 10:41:16;;;;;;;21.25;18.98;;;3.90;62.60;;;;;;5117964;28;20386;-75
2021/01/02 10:43:48;;;;;;;21.08;18.77;;;3.90;63.90;;;;;;5118356;28;20441;-76
2021/01/02 10:46:20;;;;;;;21.15;18.95;;;3.90;63.30;;;;;;5118234;28;20047;-76
2021/01/02 10:48:52;;;;;;;21.35;19.10;;;3.90;63.00;;;;;;5116084;28;20050;-76
2021/01/02 10:51:24;;;;;;;22.08;18.90;;;3.80;63.10;;;;;;5116155;28;20051;-75
2021/01/02 10:53:55;;;;;;;20.38;18.20;;;3.80;63.30;;;;;;5118358;28;20047;-74
2021/01/02 10:56:27;;;;;;;20.67;17.90;;;3.70;62.80;;;;;;5121087;28;20053;-73
2021/01/02 10:58:59;;;;;;;19.00;16.80;;;3.70;62.00;;;;;;5120431;28;20047;-73
2021/01/02 11:01:38;;;;;;;21.13;18.15;;;3.60;63.40;;;;;;5104678;28;20228;-75
2021/01/02 11:04:10;;;;;;;19.90;17.80;;;3.60;63.80;;;;;;5092581;28;20043;-73
2021/01/02 11:06:44;;;;;;;19.77;17.65;;;3.50;64.10;;;;;;5123714;28;20046;-73
2021/01/02 11:09:16;;;;;;;19.48;17.40;;;3.50;64.10;;;;;;5123052;28;20051;-74
2021/01/02 11:11:49;;;;;;;18.63;16.25;;;3.50;64.20;;;;;;5122618;28;20126;-75
2021/01/02 11:14:21;;;;;;;18.83;16.70;;;3.40;64.00;;;;;;5124635;28;20588;-75
2021/01/02 11:16:54;;;;;;;18.92;16.92;;;3.40;63.90;;;;;;5123628;28;20040;-75
2021/01/02 11:19:28;;;;;;;18.13;16.20;;;3.40;63.90;;;;;;5121807;28;20079;-73
2021/01/02 11:22:01;;;;;;;17.55;15.75;;;3.40;63.80;;;;;;5122033;28;20039;-76
2021/01/02 11:24:40;;;;;;;19.05;16.73;;;3.40;63.90;;;;;;5103145;28;20059;-75
2021/01/02 11:27:13;;;;;;;18.08;16.27;;;3.40;64.10;;;;;;5122674;28;20054;-76
2021/01/02 11:29:46;;;;;;;19.00;16.77;;;3.30;63.60;;;;;;5076574;28;20047;-74
2021/01/02 11:32:17;;;;;;;18.10;16.20;;;3.30;64.10;;;;;;5122821;28;20047;-76
2021/01/02 11:34:48;;;;;;;18.77;16.08;;;3.20;63.50;;;;;;5122989;28;20047;-77
2021/01/02 11:37:20;;;;;;;17.98;16.02;;;3.20;63.60;;;;;;5101806;28;20877;-75
2021/01/02 11:39:51;;;;;;;20.25;18.10;;;3.20;64.30;;;;;;5126197;28;20090;-74
2021/01/02 11:42:23;;;;;;;18.70;16.48;;;3.10;63.80;;;;;;5121790;28;20059;-76
2021/01/02 11:44:55;;;;;;;18.08;15.90;;;3.10;64.80;;;;;;5125640;28;20043;-76
2021/01/02 11:47:28;;;;;;;17.38;15.57;;;3.10;64.20;;;;;;5121833;28;20071;-75
2021/01/02 11:49:59;;;;;;;17.13;15.43;;;3.20;63.20;;;;;;5123333;28;20094;-74
2021/01/02 11:52:31;;;;;;;17.08;15.27;;;3.10;64.10;;;;;;5121054;28;20040;-74
2021/01/02 11:55:06;;;;;;;16.83;15.13;;;3.20;64.30;;;;;;5123394;28;20059;-72
2021/01/02 11:57:38;;;;;;;17.75;15.63;;;3.20;63.20;;;;;;5124494;28;20072;-74
2021/01/02 12:00:13;;;;;;;18.33;16.42;;;3.20;63.50;;;;;;5120502;28;20065;-74
2021/01/02 12:02:45;;;;;;;17.42;15.65;;;3.30;63.80;;;;;;5120934;28;20047;-73
2021/01/02 12:05:16;;;;;;;16.48;14.77;;;3.20;63.90;;;;;;5118398;28;20070;-75
2021/01/02 12:07:49;;;;;;;17.10;15.30;;;3.20;64.00;;;;;;5122103;28;20039;-76
2021/01/02 12:10:20;;;;;;;17.58;15.85;;;3.30;64.40;;;;;;5120908;28;20094;-76
2021/01/02 12:12:57;;;;;;;19.02;17.00;;;3.30;63.80;;;;;;5104294;28;20031;-75
2021/01/02 12:15:30;;;;;;;18.63;16.83;;;3.30;62.70;;;;;;5122069;28;20047;-75
2021/01/02 12:18:01;;;;;;;17.80;16.10;;;3.30;63.10;;;;;;5102473;28;20039;-75
2021/01/02 12:20:33;;;;;;;17.60;15.88;;;3.30;63.50;;;;;;5102292;28;20046;-76
2021/01/02 12:23:05;;;;;;;18.13;16.42;;;3.30;62.90;;;;;;5119651;28;20043;-76
2021/01/02 12:25:36;;;;;;;17.20;15.40;;;3.30;63.30;;;;;;5105155;28;20042;-75
2021/01/02 12:28:08;;;;;;;17.92;16.23;;;3.30;62.40;;;;;;5120895;28;20047;-76
2021/01/02 12:30:39;;;;;;;17.17;15.55;;;3.30;62.00;;;;;;5121488;28;20054;-76
2021/01/02 12:33:11;;;;;;;16.88;15.27;;;3.30;62.40;;;;;;5120273;28;20050;-76
2021/01/02 12:35:42;;;;;;;16.42;14.75;;;3.30;62.40;;;;;;5122748;28;20082;-74
2021/01/02 12:38:14;;;;;;;16.80;15.20;;;3.40;63.30;;;;;;5080981;28;20051;-74
2021/01/02 12:40:45;;;;;;;16.42;14.82;;;3.50;62.80;;;;;;5118219;28;20043;-76
2021/01/02 12:43:19;;;;;;;16.48;14.80;;;3.50;62.10;;;;;;5104525;28;20186;-75
2021/01/02 12:45:50;;;;;;;17.77;15.98;;;3.50;62.80;;;;;;5115083;28;20054;-76
2021/01/02 12:48:23;;;;;;;16.98;15.18;;;3.50;62.70;;;;;;5120074;28;20054;-75
2021/01/02 12:50:55;;;;;;;16.85;14.90;;;3.50;62.50;;;;;;5118987;28;20053;-76
2021/01/02 12:53:26;;;;;;;16.48;14.88;;;3.60;62.30;;;;;;5101943;28;20063;-75
2021/01/02 12:55:58;;;;;;;18.05;16.10;;;3.50;62.50;;;;;;5116584;28;20043;-76
2021/01/02 12:58:30;;;;;;;17.33;15.63;;;3.50;62.20;;;;;;5120797;28;20050;-75
2021/01/02 13:01:01;;;;;;;16.95;15.30;;;3.60;62.80;;;;;;5116983;28;20039;-75
2021/01/02 13:03:33;;;;;;;17.73;15.93;;;3.60;62.40;;;;;;5120647;28;20090;-75
2021/01/02 13:06:05;;;;;;;17.27;15.50;;;3.60;62.70;;;;;;5119250;28;20463;-74
2021/01/02 13:08:36;;;;;;;18.13;16.33;;;3.50;61.70;;;;;;5115702;28;20039;-75